Time;durP1;ratioP1;P1;durP2;ratioP2;P2;SDS_P1;SDS_P2;PMS_P1;PMS_P2;Temp;Humidity;BMP_temperature;BMP_pressure;BME280_temperature;BME280_humidity;BME280_pressure;Samples;Min_cycle;Max_cycle;Signal;HPM_P1;HPM_P2
2023/11/11 00:00:01;;;;;;;51.55;24.13;;;5.60;99.90;;;;;;2611911;46;20952;31
2023/11/11 00:02:39;;;;;;;49.63;24.63;;;5.60;99.90;;;;;;2602595;54;20918;31
2023/11/11 00:05:17;;;;;;;47.58;23.35;;;5.50;99.90;;;;;;2603122;54;20898;31
2023/11/11 00:07:52;;;;;;;42.40;22.35;;;5.40;99.90;;;;;;2603112;54;20038;31
2023/11/11 00:10:29;;;;;;;41.15;20.98;;;5.40;99.90;;;;;;2602364;54;20096;31
2023/11/11 00:13:06;;;;;;;42.75;22.00;;;5.40;99.90;;;;;;2614911;46;20894;31
2023/11/11 00:15:43;;;;;;;55.65;27.70;;;5.30;99.90;;;;;;2603077;54;20808;31
2023/11/11 00:18:21;;;;;;;72.90;35.33;;;5.30;99.90;;;;;;2603366;54;20026;31
2023/11/11 00:21:01;;;;;;;55.63;31.00;;;5.30;99.90;;;;;;2603391;54;20053;31
2023/11/11 00:23:38;;;;;;;52.90;27.48;;;5.20;99.90;;;;;;2621951;46;20089;31
2023/11/11 00:26:19;;;;;;;;;;;5.20;99.90;;;;;;2603517;54;20822;31
2023/11/11 00:28:58;;;;;;;46.55;24.35;;;5.10;99.90;;;;;;2603158;54;20764;31
2023/11/11 00:31:39;;;;;;;46.05;24.77;;;5.10;99.90;;;;;;2602319;54;20042;31
2023/11/11 00:34:15;;;;;;;40.95;21.90;;;5.00;99.90;;;;;;2621372;46;20085;31
2023/11/11 00:36:55;;;;;;;46.40;23.15;;;4.90;99.90;;;;;;2603203;54;20797;31
2023/11/11 00:39:34;;;;;;;46.33;24.42;;;4.90;99.90;;;;;;2602328;54;20030;31
2023/11/11 00:42:14;;;;;;;43.65;23.00;;;4.80;99.90;;;;;;2602309;54;20033;31
2023/11/11 00:44:49;;;;;;;55.10;27.98;;;4.80;99.90;;;;;;2603136;54;21469;31
2023/11/11 00:47:29;;;;;;;48.60;25.70;;;4.70;99.90;;;;;;2602960;54;20942;31
2023/11/11 00:50:09;;;;;;;51.63;27.95;;;4.70;99.90;;;;;;2602975;54;20923;31
2023/11/11 00:52:49;;;;;;;55.85;27.55;;;4.70;99.90;;;;;;2602901;54;20023;31
2023/11/11 00:55:27;;;;;;;51.45;26.65;;;4.70;99.90;;;;;;2603173;54;20066;31
2023/11/11 01:00:50;;;;;;;49.00;24.88;;;4.60;99.90;;;;;;2621652;46;20085;31
2023/11/11 01:03:32;;;;;;;39.33;22.75;;;4.60;99.90;;;;;;2603158;54;20902;31
2023/11/11 01:06:10;;;;;;;44.22;22.08;;;4.60;99.90;;;;;;2701651;39;20489;31
2023/11/11 01:08:53;;;;;;;41.70;23.70;;;4.60;99.90;;;;;;2603002;54;20065;31
2023/11/11 01:11:28;;;;;;;51.38;23.38;;;4.50;99.90;;;;;;2603104;54;20057;31
2023/11/11 01:14:04;;;;;;;47.40;23.45;;;4.50;99.90;;;;;;2621383;47;20946;31
2023/11/11 01:16:40;;;;;;;;;;;4.50;99.90;;;;;;2622139;47;20881;31
2023/11/11 01:19:19;;;;;;;47.08;22.45;;;4.40;99.90;;;;;;2602922;54;20808;31
2023/11/11 01:21:56;;;;;;;44.60;23.73;;;4.40;99.90;;;;;;2602086;54;20901;31
2023/11/11 01:24:36;;;;;;;44.25;22.42;;;4.40;99.90;;;;;;2602706;54;20865;31
2023/11/11 01:27:13;;;;;;;48.50;24.20;;;4.30;99.90;;;;;;2773731;31;20683;31
2023/11/11 01:29:48;;;;;;;38.75;19.67;;;4.30;99.90;;;;;;2603675;54;20034;31
2023/11/11 01:32:26;;;;;;;44.60;22.83;;;4.20;99.90;;;;;;2603650;54;20930;31
2023/11/11 01:35:03;;;;;;;44.85;23.42;;;4.20;99.90;;;;;;2603567;54;20049;31
2023/11/11 01:37:38;;;;;;;39.70;21.15;;;4.20;99.90;;;;;;2603609;54;20900;31
2023/11/11 01:40:21;;;;;;;39.75;21.00;;;4.20;99.90;;;;;;2603060;54;20038;31
2023/11/11 01:42:58;;;;;;;37.97;20.35;;;4.20;99.90;;;;;;2603833;54;20053;31
2023/11/11 01:45:35;;;;;;;42.05;23.13;;;4.10;99.90;;;;;;2603540;54;20026;31
2023/11/11 01:48:13;;;;;;;48.00;22.90;;;4.00;99.90;;;;;;2603886;54;20913;31
2023/11/11 01:50:51;;;;;;;49.67;23.50;;;4.00;99.90;;;;;;2603889;54;20030;31
2023/11/11 01:53:27;;;;;;;45.72;21.50;;;4.00;99.90;;;;;;2603876;54;20042;31
2023/11/11 01:56:09;;;;;;;36.25;17.88;;;4.00;99.90;;;;;;2603540;54;20049;31
2023/11/11 01:58:46;;;;;;;46.10;23.53;;;4.00;99.90;;;;;;2603604;54;20576;31
2023/11/11 02:01:24;;;;;;;39.55;21.23;;;3.90;99.90;;;;;;2603662;54;20026;31
2023/11/11 02:03:59;;;;;;;45.37;22.97;;;3.90;99.90;;;;;;2603546;54;20912;31
2023/11/11 02:06:36;;;;;;;42.53;22.08;;;3.90;99.90;;;;;;2602818;54;20026;31
2023/11/11 02:09:15;;;;;;;41.35;21.50;;;3.80;99.90;;;;;;2603962;54;20029;31
2023/11/11 02:11:51;;;;;;;41.65;22.33;;;3.80;99.90;;;;;;2603611;54;20912;31
2023/11/11 02:14:34;;;;;;;37.85;21.40;;;3.80;99.90;;;;;;2603651;54;20591;31
2023/11/11 02:17:09;;;;;;;33.15;20.30;;;3.80;99.90;;;;;;2603483;54;20052;31
2023/11/11 02:19:45;;;;;;;44.67;21.63;;;3.70;99.90;;;;;;2603637;54;20078;31
2023/11/11 02:22:22;;;;;;;36.45;20.05;;;3.70;99.90;;;;;;2603574;54;20101;31
2023/11/11 02:25:02;;;;;;;36.70;20.60;;;3.60;99.90;;;;;;2603704;54;20766;31
2023/11/11 02:27:37;;;;;;;42.03;21.10;;;3.50;99.90;;;;;;2603820;54;20038;31
2023/11/11 02:30:15;;;;;;;39.78;21.80;;;3.50;99.90;;;;;;2603533;54;20031;31
2023/11/11 02:32:50;;;;;;;42.97;22.17;;;3.40;99.90;;;;;;2622427;46;20033;31
2023/11/11 02:35:29;;;;;;;42.60;22.08;;;3.40;99.90;;;;;;2603305;54;20904;31
2023/11/11 02:38:07;;;;;;;44.00;22.55;;;3.40;99.90;;;;;;2603722;54;20033;31
2023/11/11 02:40:50;;;;;;;45.85;22.70;;;3.40;99.90;;;;;;2603545;54;20026;31
2023/11/11 02:45:58;;;;;;;53.72;23.35;;;3.30;99.90;;;;;;2603129;54;20077;31
2023/11/11 02:48:33;;;;;;;61.55;27.40;;;3.20;99.90;;;;;;2603403;54;20839;31
2023/11/11 02:51:10;;;;;;;43.60;23.05;;;3.10;99.90;;;;;;2603589;54;20030;31
2023/11/11 02:53:46;;;;;;;52.45;23.50;;;3.10;99.90;;;;;;2603569;54;20026;31
2023/11/11 02:56:26;;;;;;;43.55;21.83;;;3.10;99.90;;;;;;2603541;54;20089;31
2023/11/11 02:59:00;;;;;;;47.47;22.85;;;3.10;99.90;;;;;;2603371;54;20085;31
2023/11/11 03:01:37;;;;;;;48.65;23.55;;;3.10;99.90;;;;;;2603579;54;20049;31
2023/11/11 03:04:16;;;;;;;49.77;23.20;;;3.10;99.90;;;;;;2603521;54;20919;31
2023/11/11 03:06:52;;;;;;;47.92;23.65;;;3.10;99.90;;;;;;2603418;54;20038;31
2023/11/11 03:09:32;;;;;;;47.05;21.80;;;3.10;99.90;;;;;;2701789;39;20539;31
2023/11/11 03:12:12;;;;;;;45.00;22.90;;;3.10;99.90;;;;;;2603504;54;20884;31
2023/11/11 03:14:49;;;;;;;45.72;23.20;;;3.10;99.90;;;;;;2621912;46;20049;31
2023/11/11 03:17:26;;;;;;;41.47;20.75;;;3.00;99.90;;;;;;2602760;54;20936;31
2023/11/11 03:20:04;;;;;;;41.65;20.58;;;3.00;99.90;;;;;;2603522;54;20027;31
2023/11/11 03:22:40;;;;;;;42.22;22.55;;;3.00;99.90;;;;;;2603639;54;20027;31
2023/11/11 03:25:16;;;;;;;44.13;21.88;;;3.00;99.90;;;;;;2603655;54;20834;31
2023/11/11 03:27:57;;;;;;;41.20;21.10;;;2.90;99.90;;;;;;2602557;54;20030;31
2023/11/11 03:30:33;;;;;;;40.97;22.75;;;2.90;99.90;;;;;;2603416;54;20053;31
2023/11/11 03:33:10;;;;;;;38.63;20.65;;;2.90;99.90;;;;;;2603188;54;20616;31
2023/11/11 03:35:50;;;;;;;44.90;22.83;;;2.80;99.90;;;;;;2603399;54;20037;31
2023/11/11 03:38:28;;;;;;;46.30;23.63;;;2.80;99.90;;;;;;2603368;54;20030;31
2023/11/11 03:41:04;;;;;;;41.55;22.30;;;2.70;99.90;;;;;;2622119;46;20022;31
2023/11/11 03:43:43;;;;;;;40.55;21.10;;;2.60;99.90;;;;;;2606542;46;21032;31
2023/11/11 03:46:20;;;;;;;49.35;24.00;;;2.70;99.90;;;;;;2603453;54;20869;31
2023/11/11 03:49:05;;;;;;;46.65;24.15;;;2.60;99.90;;;;;;2603384;54;20033;31
2023/11/11 03:51:41;;;;;;;50.20;23.77;;;2.60;99.90;;;;;;2603185;54;20109;31
2023/11/11 03:54:18;;;;;;;47.08;23.65;;;2.60;99.90;;;;;;2603183;54;20150;31
2023/11/11 03:56:54;;;;;;;42.13;21.02;;;2.60;99.90;;;;;;2621599;46;20810;31
2023/11/11 03:59:35;;;;;;;44.90;21.67;;;2.60;99.90;;;;;;2621860;46;20121;31
2023/11/11 04:02:11;;;;;;;41.80;22.00;;;2.60;99.90;;;;;;2603319;54;20849;31
2023/11/11 04:04:48;;;;;;;;;;;2.50;99.90;;;;;;2603717;54;20026;31
2023/11/11 04:07:25;;;;;;;45.58;21.05;;;2.50;99.90;;;;;;2603325;54;19934;31
2023/11/11 04:10:01;;;;;;;46.20;22.35;;;2.50;99.90;;;;;;2603526;54;20141;31
2023/11/11 04:12:39;;;;;;;48.45;23.05;;;2.50;99.90;;;;;;2603476;54;20125;31
2023/11/11 04:15:17;;;;;;;43.40;22.60;;;2.50;99.90;;;;;;2603192;54;20905;31
2023/11/11 04:17:57;;;;;;;50.63;24.27;;;2.50;99.90;;;;;;2603229;54;20101;31
2023/11/11 04:20:34;;;;;;;51.35;24.75;;;2.50;99.90;;;;;;2621685;46;20026;31
2023/11/11 04:23:09;;;;;;;49.53;23.23;;;2.40;99.90;;;;;;2603230;54;20059;31
2023/11/11 04:25:46;;;;;;;54.78;23.23;;;2.40;99.90;;;;;;2621461;46;20042;31
2023/11/11 04:28:20;;;;;;;51.35;24.35;;;2.30;99.90;;;;;;2701703;39;22480;31
2023/11/11 04:30:59;;;;;;;42.25;21.92;;;2.40;99.90;;;;;;2603307;54;20117;31
2023/11/11 04:33:35;;;;;;;45.10;22.67;;;2.40;99.90;;;;;;2621323;46;20874;31
2023/11/11 04:36:09;;;;;;;;;;;2.40;99.90;;;;;;2603510;54;20161;31
2023/11/11 04:38:45;;;;;;;47.70;22.37;;;2.30;99.90;;;;;;2603278;54;19942;31
2023/11/11 04:41:20;;;;;;;48.97;22.73;;;2.30;99.90;;;;;;2603373;54;20107;31
2023/11/11 04:43:56;;;;;;;42.77;22.60;;;2.30;99.90;;;;;;2603088;54;20106;31
2023/11/11 04:46:37;;;;;;;44.10;21.45;;;2.30;99.90;;;;;;2602414;54;20026;31
2023/11/11 04:49:24;;;;;;;42.95;20.35;;;2.30;99.90;;;;;;2603045;54;20831;31
2023/11/11 04:51:58;;;;;;;48.63;21.90;;;2.30;99.90;;;;;;2602742;54;20117;31
2023/11/11 04:54:34;;;;;;;49.15;21.17;;;2.30;99.90;;;;;;2620461;46;22391;31
2023/11/11 04:57:11;;;;;;;41.83;19.90;;;2.30;99.90;;;;;;2603201;54;20030;31
2023/11/11 04:59:46;;;;;;;42.28;20.63;;;2.20;99.90;;;;;;2603003;54;20027;31
2023/11/11 05:02:25;;;;;;;45.88;21.80;;;2.20;99.90;;;;;;2603180;54;20093;31
2023/11/11 05:05:02;;;;;;;40.55;21.25;;;2.20;99.90;;;;;;2602795;54;20067;31
2023/11/11 05:07:39;;;;;;;42.22;21.33;;;2.10;99.90;;;;;;2603383;54;20026;31
2023/11/11 05:10:19;;;;;;;42.85;20.10;;;2.00;99.90;;;;;;2603070;54;20873;31
2023/11/11 05:12:56;;;;;;;42.15;19.98;;;2.10;99.90;;;;;;2603134;54;20921;31
2023/11/11 05:15:34;;;;;;;41.75;18.85;;;2.00;99.90;;;;;;2621503;47;20110;31
2023/11/11 05:18:12;;;;;;;37.80;17.45;;;2.00;99.90;;;;;;2603287;54;20022;31
2023/11/11 05:20:45;;;;;;;33.42;18.38;;;1.90;99.90;;;;;;2621358;47;20026;31
2023/11/11 05:23:20;;;;;;;36.10;17.20;;;1.90;99.90;;;;;;2603023;54;20850;31
2023/11/11 05:25:57;;;;;;;37.45;17.75;;;1.80;99.90;;;;;;2603070;54;20110;31
2023/11/11 05:28:32;;;;;;;34.60;18.00;;;1.80;99.90;;;;;;2602887;54;20030;31
2023/11/11 05:31:09;;;;;;;37.20;18.60;;;1.80;99.90;;;;;;2603221;54;20876;31
2023/11/11 05:33:47;;;;;;;47.58;20.25;;;1.80;99.90;;;;;;2602440;54;20038;31
2023/11/11 05:36:23;;;;;;;41.67;19.02;;;1.80;99.90;;;;;;2602620;54;20035;31
2023/11/11 05:38:59;;;;;;;47.28;18.33;;;1.70;99.90;;;;;;2603077;54;20022;31
2023/11/11 05:41:38;;;;;;;34.42;16.33;;;1.70;99.90;;;;;;2603128;54;20030;31
2023/11/11 05:44:14;;;;;;;38.15;17.63;;;1.70;99.90;;;;;;2603026;54;20085;31
2023/11/11 05:46:49;;;;;;;41.75;17.30;;;1.70;99.90;;;;;;2602954;54;20988;31
2023/11/11 05:49:27;;;;;;;37.28;17.75;;;1.70;99.90;;;;;;2621577;47;20880;31
2023/11/11 05:52:02;;;;;;;57.95;17.30;;;1.70;99.90;;;;;;2602774;54;20031;31
2023/11/11 05:54:37;;;;;;;44.13;17.60;;;1.60;99.90;;;;;;2602971;54;20093;31
2023/11/11 05:57:15;;;;;;;27.00;14.53;;;1.60;99.90;;;;;;2602935;54;20270;31
2023/11/11 05:59:52;;;;;;;29.00;14.05;;;1.60;99.90;;;;;;2602864;54;20030;31
2023/11/11 06:02:27;;;;;;;28.80;13.85;;;1.60;99.90;;;;;;2621296;47;20030;31
2023/11/11 06:05:06;;;;;;;25.02;13.57;;;1.60;99.90;;;;;;2617631;47;20085;31
2023/11/11 06:07:40;;;;;;;44.63;16.27;;;1.60;99.90;;;;;;2621421;47;20034;31
2023/11/11 06:10:17;;;;;;;33.65;14.73;;;1.60;99.90;;;;;;2603360;54;20019;31
2023/11/11 06:12:57;;;;;;;38.90;16.65;;;1.60;99.90;;;;;;2603712;54;20506;31
2023/11/11 06:15:34;;;;;;;37.95;16.55;;;1.60;99.90;;;;;;2701975;39;20411;31
2023/11/11 06:18:11;;;;;;;44.35;16.50;;;1.60;99.90;;;;;;2603651;54;20026;31
2023/11/11 06:20:50;;;;;;;42.70;16.70;;;1.60;99.90;;;;;;2603695;54;20057;31
2023/11/11 06:23:25;;;;;;;31.80;14.53;;;1.50;99.90;;;;;;2603638;54;20904;31
2023/11/11 06:26:03;;;;;;;38.55;16.23;;;1.60;99.90;;;;;;2603603;54;20955;31
2023/11/11 06:28:38;;;;;;;30.73;16.00;;;1.50;99.90;;;;;;2622211;46;20034;31
2023/11/11 06:31:14;;;;;;;45.00;15.55;;;1.60;99.90;;;;;;2603720;54;20026;31
2023/11/11 06:33:51;;;;;;;39.23;16.77;;;1.60;99.90;;;;;;2604006;54;20884;31
2023/11/11 06:36:29;;;;;;;50.80;19.80;;;1.50;99.90;;;;;;2622160;46;20293;31
2023/11/11 06:39:08;;;;;;;36.10;18.50;;;1.50;99.90;;;;;;2603070;54;20042;31
2023/11/11 06:41:46;;;;;;;48.05;18.42;;;1.50;99.90;;;;;;2603864;54;20140;31
2023/11/11 06:44:20;;;;;;;38.53;17.57;;;1.50;99.90;;;;;;2603384;54;20030;31
2023/11/11 06:46:55;;;;;;;48.17;18.38;;;1.50;99.90;;;;;;2622246;46;20026;31
2023/11/11 06:49:30;;;;;;;43.25;20.05;;;1.60;99.90;;;;;;2603782;54;20833;31
2023/11/11 06:52:08;;;;;;;40.37;18.40;;;1.60;99.90;;;;;;2602926;54;20077;31
2023/11/11 06:54:46;;;;;;;44.70;18.95;;;1.60;99.90;;;;;;2602719;54;20089;31
2023/11/11 06:57:22;;;;;;;39.35;19.90;;;1.60;99.90;;;;;;2603827;54;20038;31
2023/11/11 07:00:00;;;;;;;40.40;19.05;;;1.70;99.90;;;;;;2603455;54;20027;31
2023/11/11 07:02:38;;;;;;;57.53;23.30;;;1.70;99.90;;;;;;2603645;54;20745;31
2023/11/11 07:05:14;;;;;;;43.28;19.30;;;1.70;99.90;;;;;;2614326;46;20030;31
2023/11/11 07:07:54;;;;;;;43.10;19.90;;;1.70;99.90;;;;;;2602697;54;20859;31
2023/11/11 07:10:30;;;;;;;36.97;18.13;;;1.70;99.90;;;;;;2603597;54;20031;31
2023/11/11 07:13:09;;;;;;;34.05;17.05;;;1.80;99.90;;;;;;2603543;54;20051;31
2023/11/11 07:15:45;;;;;;;44.35;19.55;;;1.70;99.90;;;;;;2603413;54;20839;31
2023/11/11 07:18:19;;;;;;;41.70;20.25;;;1.80;99.90;;;;;;2608426;46;22495;31
2023/11/11 07:20:55;;;;;;;33.70;17.33;;;1.80;99.90;;;;;;2617512;46;21672;31
2023/11/11 07:23:35;;;;;;;54.80;20.73;;;1.80;99.90;;;;;;2603314;54;20109;31
2023/11/11 07:26:11;;;;;;;42.75;19.08;;;1.90;99.90;;;;;;2603486;54;20038;31
2023/11/11 07:28:48;;;;;;;42.78;18.20;;;1.90;99.90;;;;;;2603378;54;20849;31
2023/11/11 07:31:25;;;;;;;34.40;17.48;;;1.90;99.90;;;;;;2603332;54;20811;31
2023/11/11 07:34:00;;;;;;;41.90;17.93;;;1.90;99.90;;;;;;2603604;54;20854;31
2023/11/11 07:36:38;;;;;;;41.20;18.95;;;1.90;99.90;;;;;;2603368;54;20878;31
2023/11/11 07:39:16;;;;;;;41.95;19.13;;;2.00;99.90;;;;;;2603570;54;20937;31
2023/11/11 07:41:51;;;;;;;48.97;21.35;;;2.00;99.90;;;;;;2603277;54;20920;31
2023/11/11 07:44:27;;;;;;;43.22;19.88;;;2.10;99.90;;;;;;2603431;54;20050;31
2023/11/11 07:47:01;;;;;;;;;;;2.20;99.90;;;;;;2603713;54;20033;31
2023/11/11 07:49:36;;;;;;;40.65;18.33;;;2.20;99.90;;;;;;2603230;54;19967;31
2023/11/11 07:52:11;;;;;;;43.85;20.00;;;2.30;99.90;;;;;;2603257;54;20029;31
2023/11/11 07:54:48;;;;;;;37.05;18.95;;;2.30;99.90;;;;;;2622005;46;20055;31
2023/11/11 07:57:23;;;;;;;38.50;21.02;;;2.30;99.90;;;;;;2603327;54;20046;31
2023/11/11 08:00:23;;;;;;;39.80;20.40;;;2.40;99.90;;;;;;2603513;54;20027;31
2023/11/11 08:02:58;;;;;;;46.83;21.50;;;2.40;99.90;;;;;;2603299;54;20037;31
2023/11/11 08:05:33;;;;;;;38.27;19.07;;;2.40;99.90;;;;;;2603485;54;20854;31
2023/11/11 08:08:08;;;;;;;36.57;20.10;;;2.50;99.90;;;;;;2603447;54;20030;31
2023/11/11 08:10:54;;;;;;;37.95;18.45;;;2.50;99.90;;;;;;2621530;46;21084;31
2023/11/11 08:13:30;;;;;;;38.63;18.58;;;2.60;99.90;;;;;;2603408;54;20157;31
2023/11/11 08:16:05;;;;;;;30.50;16.65;;;2.70;99.90;;;;;;2621695;46;20030;31
2023/11/11 08:18:44;;;;;;;33.80;16.77;;;2.70;99.90;;;;;;2603339;54;20157;31
2023/11/11 08:21:29;;;;;;;34.08;16.48;;;2.80;99.90;;;;;;2603335;54;20026;31
2023/11/11 08:24:06;;;;;;;47.70;25.27;;;2.90;99.90;;;;;;2701009;39;21559;31
2023/11/11 08:26:45;;;;;;;38.47;20.37;;;2.90;99.90;;;;;;2602986;54;20113;31
2023/11/11 08:29:21;;;;;;;33.55;18.92;;;3.00;99.90;;;;;;2603333;54;20087;31
2023/11/11 08:31:57;;;;;;;33.77;15.90;;;3.10;99.90;;;;;;2603125;54;20112;31
2023/11/11 08:34:36;;;;;;;31.02;17.30;;;3.20;99.90;;;;;;2602768;54;20037;31
2023/11/11 08:37:19;;;;;;;31.73;16.33;;;3.20;99.90;;;;;;2621822;46;20096;31
2023/11/11 08:39:56;;;;;;;34.25;18.35;;;3.30;99.90;;;;;;2603089;54;20033;31
2023/11/11 08:42:39;;;;;;;34.33;16.45;;;3.40;99.90;;;;;;2602973;54;20032;31
2023/11/11 08:45:14;;;;;;;32.30;16.60;;;3.40;99.90;;;;;;2603132;54;20034;31
2023/11/11 08:47:49;;;;;;;39.53;19.75;;;3.50;99.90;;;;;;2603068;54;20136;31
2023/11/11 08:50:28;;;;;;;35.45;17.45;;;3.60;99.90;;;;;;2603330;54;20026;31
2023/11/11 08:53:06;;;;;;;34.20;17.85;;;3.60;99.90;;;;;;2603193;54;20054;31
2023/11/11 08:55:41;;;;;;;34.50;17.70;;;3.70;99.90;;;;;;2621536;46;20026;31
2023/11/11 08:58:19;;;;;;;34.65;17.30;;;3.70;99.90;;;;;;2603008;54;20906;31
2023/11/11 09:00:57;;;;;;;36.08;19.15;;;3.80;99.90;;;;;;2621302;46;20049;31
2023/11/11 09:03:49;;;;;;;34.10;18.02;;;3.90;99.90;;;;;;2602184;54;20023;31
2023/11/11 09:06:25;;;;;;;43.20;19.35;;;4.00;99.90;;;;;;2602729;54;20880;31
2023/11/11 09:09:02;;;;;;;30.70;17.02;;;4.00;99.90;;;;;;2602904;54;20033;31
2023/11/11 09:11:39;;;;;;;38.65;18.35;;;4.20;99.90;;;;;;2602894;54;20889;31
2023/11/11 09:14:14;;;;;;;32.70;17.70;;;4.20;99.90;;;;;;2603121;54;20032;31
2023/11/11 09:16:54;;;;;;;35.92;18.63;;;4.30;99.90;;;;;;2602804;54;20085;31
2023/11/11 09:19:31;;;;;;;36.20;20.63;;;4.40;99.90;;;;;;2602186;54;20027;31
2023/11/11 09:22:06;;;;;;;35.28;19.23;;;4.40;99.90;;;;;;2602876;54;20978;31
2023/11/11 09:24:41;;;;;;;37.15;20.08;;;4.50;99.90;;;;;;2602960;54;20833;31
2023/11/11 09:27:16;;;;;;;39.93;20.80;;;4.60;99.90;;;;;;2602776;54;20947;31
2023/11/11 09:29:51;;;;;;;37.33;19.83;;;4.60;99.90;;;;;;2602914;54;20601;31
2023/11/11 09:32:29;;;;;;;34.25;19.77;;;4.80;99.90;;;;;;2602994;54;21141;31
2023/11/11 09:35:04;;;;;;;84.90;53.60;;;4.80;99.90;;;;;;2602196;54;20896;31
2023/11/11 09:37:39;;;;;;;65.40;40.65;;;4.90;99.90;;;;;;2603049;54;20842;31
2023/11/11 09:40:18;;;;;;;49.10;30.63;;;5.00;99.90;;;;;;2602140;54;20894;31
2023/11/11 09:42:54;;;;;;;33.90;20.55;;;5.10;99.90;;;;;;2602789;54;20902;31
2023/11/11 09:45:30;;;;;;;36.80;22.70;;;5.20;99.90;;;;;;2621104;47;20029;31
2023/11/11 09:48:07;;;;;;;;;;;5.30;99.90;;;;;;2622259;46;20060;31
2023/11/11 09:53:33;;;;;;;37.10;21.00;;;5.40;99.90;;;;;;2622000;46;20042;31
2023/11/11 09:56:08;;;;;;;37.60;20.38;;;5.50;99.90;;;;;;2603545;54;20104;31
2023/11/11 09:59:09;;;;;;;35.10;20.35;;;5.60;99.90;;;;;;2603820;54;20882;31
2023/11/11 10:01:44;;;;;;;33.00;18.10;;;5.70;99.90;;;;;;2773689;31;22604;31
2023/11/11 10:04:25;;;;;;;35.50;19.20;;;5.80;99.90;;;;;;2603686;54;20837;31
2023/11/11 10:07:00;;;;;;;34.63;18.35;;;5.90;99.90;;;;;;2603426;54;20584;31
2023/11/11 10:09:46;;;;;;;32.13;18.47;;;5.90;99.90;;;;;;2603726;54;20033;31
2023/11/11 10:12:22;;;;;;;36.00;18.30;;;6.00;99.90;;;;;;2603480;54;20027;31
2023/11/11 10:15:01;;;;;;;33.93;17.37;;;6.10;99.90;;;;;;2603391;54;20870;31
2023/11/11 10:17:40;;;;;;;33.35;19.05;;;6.20;99.90;;;;;;2701910;39;21646;31
2023/11/11 10:20:27;;;;;;;35.75;20.05;;;6.30;99.90;;;;;;2622152;46;20920;31
2023/11/11 10:23:07;;;;;;;33.20;18.75;;;6.40;99.90;;;;;;2621946;46;20022;31
2023/11/11 10:25:58;;;;;;;33.67;17.60;;;6.50;99.90;;;;;;2622321;46;20053;31
2023/11/11 10:28:35;;;;;;;34.40;21.27;;;6.60;99.90;;;;;;2621886;46;20081;31
2023/11/11 10:31:14;;;;;;;31.33;19.40;;;6.80;99.90;;;;;;2603171;54;20031;31
2023/11/11 10:33:57;;;;;;;32.60;18.35;;;6.80;99.90;;;;;;2621884;46;20053;31
2023/11/11 10:36:40;;;;;;;28.90;16.80;;;7.00;99.90;;;;;;2603380;54;20057;31
2023/11/11 10:39:21;;;;;;;29.02;16.60;;;7.10;99.90;;;;;;2622432;46;20027;31
2023/11/11 10:41:57;;;;;;;32.17;17.45;;;7.10;99.90;;;;;;2603311;54;20026;31
2023/11/11 10:44:32;;;;;;;29.73;17.30;;;7.20;99.90;;;;;;2603378;54;20810;31
2023/11/11 10:47:07;;;;;;;28.40;17.17;;;7.30;99.90;;;;;;2603344;54;20977;31
2023/11/11 10:49:42;;;;;;;31.95;16.83;;;7.40;99.90;;;;;;2603398;54;20030;31
2023/11/11 10:52:20;;;;;;;27.35;15.68;;;7.40;99.90;;;;;;2603405;54;20922;31
2023/11/11 10:54:56;;;;;;;27.90;16.10;;;7.50;99.90;;;;;;2603371;54;20921;31
2023/11/11 10:57:31;;;;;;;29.55;17.20;;;7.60;99.90;;;;;;2603143;54;20033;31
2023/11/11 11:00:16;;;;;;;27.50;16.00;;;7.60;99.90;;;;;;2621660;46;20823;31
2023/11/11 11:02:54;;;;;;;28.58;16.52;;;7.70;99.90;;;;;;2603608;54;20948;31
2023/11/11 11:05:34;;;;;;;29.77;15.68;;;7.70;99.90;;;;;;2603269;54;21584;31
2023/11/11 11:08:15;;;;;;;27.77;15.40;;;7.70;99.90;;;;;;2603289;54;20026;31
2023/11/11 11:10:54;;;;;;;28.33;16.20;;;7.80;99.90;;;;;;2603564;54;20030;31
2023/11/11 11:13:30;;;;;;;31.00;16.80;;;7.90;99.90;;;;;;2603353;54;20021;31
2023/11/11 11:16:05;;;;;;;27.60;16.75;;;7.90;99.90;;;;;;2622064;46;20924;31
2023/11/11 11:18:43;;;;;;;31.17;19.00;;;7.90;99.90;;;;;;2603062;54;20073;31
2023/11/11 11:21:20;;;;;;;28.10;14.88;;;7.90;99.90;;;;;;2603547;54;20085;31
2023/11/11 11:24:00;;;;;;;25.23;15.80;;;8.00;99.90;;;;;;2603546;54;20105;31
2023/11/11 11:26:38;;;;;;;26.25;15.40;;;8.10;99.90;;;;;;2603567;54;20874;31
2023/11/11 11:29:14;;;;;;;29.85;17.90;;;8.10;99.90;;;;;;2602585;54;20034;31
2023/11/11 11:32:09;;;;;;;24.75;15.90;;;8.10;99.90;;;;;;2602634;54;20037;31
2023/11/11 11:34:46;;;;;;;38.22;20.23;;;8.20;99.90;;;;;;2603319;54;25105;31
2023/11/11 11:37:23;;;;;;;28.48;16.58;;;8.30;99.90;;;;;;2603482;54;20027;31
2023/11/11 11:40:06;;;;;;;;;;;8.30;99.90;;;;;;2603515;54;20034;31
2023/11/11 11:42:42;;;;;;;25.63;13.50;;;8.30;99.90;;;;;;2621740;46;19993;31
2023/11/11 11:45:17;;;;;;;25.25;13.55;;;8.40;99.90;;;;;;2603373;54;19935;31
2023/11/11 11:47:52;;;;;;;23.60;14.00;;;8.40;99.90;;;;;;2603297;54;20137;31
2023/11/11 11:50:29;;;;;;;23.75;13.65;;;8.40;99.90;;;;;;2603355;54;20035;31
2023/11/11 11:53:04;;;;;;;25.65;15.30;;;8.50;99.90;;;;;;2603221;54;21166;31
2023/11/11 11:55:43;;;;;;;28.42;15.30;;;8.50;99.90;;;;;;2603216;54;20038;31
2023/11/11 11:58:20;;;;;;;23.70;14.40;;;8.50;99.90;;;;;;2602927;54;20023;31
2023/11/11 12:00:54;;;;;;;;;;;8.50;99.90;;;;;;2603437;54;20904;31
2023/11/11 12:03:29;;;;;;;27.42;16.10;;;8.50;99.90;;;;;;2603321;54;19935;31
2023/11/11 12:06:04;;;;;;;23.58;14.75;;;8.50;99.90;;;;;;2603348;54;20050;31
2023/11/11 12:08:39;;;;;;;23.87;15.20;;;8.60;99.90;;;;;;2603202;54;20876;31
2023/11/11 12:11:17;;;;;;;27.73;16.88;;;8.60;99.90;;;;;;2603082;54;20895;31
2023/11/11 12:13:54;;;;;;;24.95;14.57;;;8.60;99.90;;;;;;2621723;46;20037;31
2023/11/11 12:16:29;;;;;;;28.13;16.47;;;8.60;99.90;;;;;;2603246;54;20062;31
2023/11/11 12:19:10;;;;;;;25.83;15.60;;;8.60;99.90;;;;;;2621470;46;20053;31
2023/11/11 12:21:50;;;;;;;35.67;15.70;;;8.60;99.90;;;;;;2602912;54;20031;31
2023/11/11 12:24:26;;;;;;;26.20;14.93;;;8.60;99.90;;;;;;2621628;46;20046;31
2023/11/11 12:27:04;;;;;;;26.73;14.98;;;8.70;99.90;;;;;;2603234;54;20326;31
2023/11/11 12:32:16;;;;;;;31.63;14.57;;;8.80;99.90;;;;;;2603143;54;20048;31
2023/11/11 12:34:51;;;;;;;28.95;14.18;;;8.90;99.90;;;;;;2603222;54;20085;31
2023/11/11 12:37:26;;;;;;;24.70;13.70;;;9.10;99.90;;;;;;2603260;54;20581;31
2023/11/11 12:40:01;;;;;;;26.98;14.93;;;9.10;99.90;;;;;;2602963;54;20044;31
2023/11/11 12:42:40;;;;;;;25.03;12.90;;;9.40;99.90;;;;;;2603161;54;20864;31
2023/11/11 12:45:19;;;;;;;25.15;14.48;;;9.50;99.90;;;;;;2603197;54;20180;31
2023/11/11 12:47:57;;;;;;;20.50;12.30;;;9.60;99.90;;;;;;2701511;39;20565;31
2023/11/11 12:50:35;;;;;;;22.40;14.35;;;9.60;99.90;;;;;;2603355;54;20037;31
2023/11/11 12:53:11;;;;;;;23.27;12.57;;;9.50;99.90;;;;;;2603051;54;20009;31
2023/11/11 12:55:46;;;;;;;;;;;9.50;99.90;;;;;;2603309;54;20034;31
2023/11/11 12:58:28;;;;;;;21.90;13.07;;;9.50;99.90;;;;;;2621529;46;20013;31
2023/11/11 13:01:04;;;;;;;21.98;13.02;;;9.40;99.90;;;;;;2603076;54;20822;31
2023/11/11 13:03:39;;;;;;;22.15;13.27;;;9.40;99.90;;;;;;2603009;54;20031;31
2023/11/11 13:06:16;;;;;;;19.80;12.00;;;9.30;99.90;;;;;;2603031;54;20845;31
2023/11/11 13:08:50;;;;;;;;;;;9.30;99.90;;;;;;2603374;54;20032;31
2023/11/11 13:11:24;;;;;;;22.88;13.07;;;9.20;99.90;;;;;;2603023;54;20000;31
2023/11/11 13:14:02;;;;;;;25.60;14.65;;;9.20;99.90;;;;;;2701434;39;20478;31
2023/11/11 13:16:37;;;;;;;21.05;12.82;;;9.20;99.90;;;;;;2621249;47;20027;31
2023/11/11 13:19:12;;;;;;;22.57;13.70;;;9.10;99.90;;;;;;2602840;54;20031;31
2023/11/11 13:21:47;;;;;;;26.33;14.03;;;9.10;99.90;;;;;;2604019;54;20569;31
2023/11/11 13:24:23;;;;;;;23.57;13.47;;;9.10;99.90;;;;;;2702516;39;20485;31
2023/11/11 13:26:58;;;;;;;22.00;13.45;;;9.10;99.90;;;;;;2603776;54;21170;31
2023/11/11 13:29:35;;;;;;;19.60;11.40;;;9.10;99.90;;;;;;2603793;54;20026;31
2023/11/11 13:32:11;;;;;;;22.90;12.17;;;9.00;99.90;;;;;;2621918;46;20577;31
2023/11/11 13:34:45;;;;;;;24.70;13.40;;;9.00;99.90;;;;;;2622600;46;20929;31
2023/11/11 13:37:21;;;;;;;24.25;12.35;;;9.00;99.90;;;;;;2603783;54;20113;31
2023/11/11 13:40:19;;;;;;;22.00;12.32;;;9.00;99.90;;;;;;2603669;54;20993;31
2023/11/11 13:42:53;;;;;;;23.90;12.35;;;9.00;99.90;;;;;;2622567;46;20048;31
2023/11/11 13:45:31;;;;;;;23.87;13.07;;;9.00;99.90;;;;;;2603818;54;20146;31
2023/11/11 13:48:07;;;;;;;22.35;12.65;;;9.00;99.90;;;;;;2603690;54;21061;31
2023/11/11 13:50:41;;;;;;;;;;;8.90;99.90;;;;;;2604042;54;20042;31
2023/11/11 13:53:16;;;;;;;20.58;11.05;;;8.90;99.90;;;;;;2603717;54;19934;31